This is the latest recevied weather packets stored in our database for station/object F5MAP-5. If no packets are shown the sender has not sent any weather packets the latest 10 day(s).
| Time | Temp. | Humidity | Pressure | Rain* | Wind** | Luminosity | Snow |
|---|---|---|---|---|---|---|---|
| 1777995731 | 16.67° C | 87% | 1007.6 hPa | 0 mm | - | 120 W/m² | - |
| 1777995131 | 16.67° C | 88% | 1007.6 hPa | 0 mm | - | 137 W/m² | - |
| 1777994531 | 16.67° C | 86% | 1007.6 hPa | 0 mm | - | 207 W/m² | - |
| 1777993931 | 16.67° C | 85% | 1007.8 hPa | 0 mm | - | 190 W/m² | - |
| 1777993331 | 16.67° C | 83% | 1007.7 hPa | 0 mm | - | 156 W/m² | - |
| 1777992731 | 17.22° C | 82% | 1007.7 hPa | 0 mm | - | 109 W/m² | - |
| 1777992131 | 17.78° C | 80% | 1007.6 hPa | 0 mm | - | 63 W/m² | - |
| 1777991531 | 18.33° C | 78% | 1007.6 hPa | 0 mm | - | 30 W/m² | - |
| 1777990930 | 18.89° C | 75% | 1008 hPa | 0 mm | - | 12 W/m² | - |
| 1777990330 | 19.44° C | 72% | 1008.2 hPa | 0 mm | - | 9 W/m² | - |
| 1777989730 | 19.44° C | 65% | 1007.5 hPa | 0 mm | - | 56 W/m² | - |
| 1777989131 | 19.44° C | 66% | 1007.5 hPa | 0 mm | - | 120 W/m² | - |
| 1777988531 | 20° C | 64% | 1007.4 hPa | 0 mm | - | 193 W/m² | - |
| 1777987931 | 20.56° C | 64% | 1007.5 hPa | 0 mm | - | 118 W/m² | - |
| 1777987330 | 20.56° C | 65% | 1007.7 hPa | 0 mm | - | 295 W/m² | - |
| 1777986730 | 20.56° C | 64% | 1007.7 hPa | 0 mm | - | 355 W/m² | - |
| 1777986130 | 20.56° C | 66% | 1007.9 hPa | 0 mm | - | 352 W/m² | - |
| 1777985530 | 20° C | 67% | 1007.9 hPa | 0 mm | - | 882 W/m² | - |
| 1777984930 | 20° C | 67% | 1008 hPa | 0 mm | - | 573 W/m² | - |
| 1777984330 | 20° C | 69% | 1008 hPa | 0 mm | - | 279 W/m² | - |
| 1777983731 | 19.44° C | 73% | 1008.1 hPa | 0 mm | - | 1127 W/m² | - |
| 1777983199 | 18.33° C | 79% | 1008.2 hPa | 0 mm | - | 879 W/m² | - |
| 1777983199 | 18.33° C | 79% | 1008.2 hPa | 0 mm | - | 879 W/m² | - |
| 1777983130 | 18.33° C | 79% | 1008.2 hPa | 0 mm | - | 879 W/m² | - |
| 1777982531 | 17.22° C | 83% | 1008.3 hPa | 0 mm | - | 1032 W/m² | - |
* Rain latest hour (hover to see other rain measurements)
** Current wind speed in m/s (hover to see current wind gust speed)